createdAt,value
2023-03-15T00:01:16.323Z,3.55
2023-03-15T00:03:44.112Z,3.08
2023-03-15T00:06:11.561Z,3.28
2023-03-15T00:08:38.387Z,10.68
2023-03-15T00:11:06.002Z,3.60
2023-03-15T00:13:33.338Z,5.15
2023-03-15T00:16:03.393Z,5.05
2023-03-15T00:18:30.688Z,4.13
2023-03-15T00:20:57.687Z,1.45
2023-03-15T00:23:24.420Z,4.00
2023-03-15T00:25:52.665Z,3.25
2023-03-15T00:28:19.664Z,3.40
2023-03-15T00:30:47.085Z,6.18
2023-03-15T00:33:14.378Z,5.18
2023-03-15T00:35:43.615Z,1.20
2023-03-15T00:38:10.853Z,4.88
2023-03-15T00:40:38.445Z,4.03
2023-03-15T00:43:05.803Z,2.38
2023-03-15T00:45:33.031Z,1.60
2023-03-15T00:48:00.010Z,3.07
2023-03-15T00:50:27.048Z,1.35
2023-03-15T00:52:53.812Z,0.32
2023-03-15T00:55:21.528Z,1.60
2023-03-15T00:57:48.372Z,0.40
2023-03-15T01:00:23.308Z,2.93
2023-03-15T01:02:51.322Z,6.22
2023-03-15T01:05:18.491Z,3.03
2023-03-15T01:07:45.704Z,5.15
2023-03-15T01:10:14.300Z,7.10
2023-03-15T01:12:41.641Z,4.30
2023-03-15T01:15:10.488Z,2.75
2023-03-15T01:17:37.315Z,3.33
2023-03-15T01:20:05.702Z,4.25
2023-03-15T01:22:32.676Z,2.05
2023-03-15T01:24:59.418Z,5.50
2023-03-15T01:27:26.229Z,2.00
2023-03-15T01:29:53.140Z,3.78
2023-03-15T01:32:19.913Z,8.88
2023-03-15T01:34:46.812Z,5.85
2023-03-15T01:37:14.717Z,5.63
2023-03-15T01:39:42.626Z,3.72
2023-03-15T01:42:10.587Z,3.83
2023-03-15T01:44:59.965Z,2.60
2023-03-15T01:47:27.487Z,3.60
2023-03-15T01:50:10.201Z,3.33
2023-03-15T01:52:41.774Z,4.22
2023-03-15T01:55:15.263Z,3.63
2023-03-15T01:57:48.841Z,3.67
2023-03-15T02:00:19.912Z,3.35
2023-03-15T02:03:17.195Z,2.07
2023-03-15T02:05:54.661Z,2.72
2023-03-15T02:08:25.387Z,2.88
2023-03-15T02:10:55.842Z,2.08
2023-03-15T02:13:25.085Z,2.78
2023-03-15T02:15:53.488Z,3.50
2023-03-15T02:18:21.506Z,4.10
2023-03-15T02:21:06.862Z,2.33
2023-03-15T02:23:33.933Z,5.97
2023-03-15T02:26:12.657Z,4.80
2023-03-15T02:28:41.103Z,5.73
2023-03-15T02:31:08.057Z,4.80
2023-03-15T02:33:43.499Z,3.58
2023-03-15T02:36:22.230Z,3.03
2023-03-15T02:38:50.306Z,2.78
2023-03-15T02:41:26.374Z,2.10
2023-03-15T02:43:57.002Z,5.78
2023-03-15T02:46:24.418Z,2.80
2023-03-15T02:48:54.264Z,2.40
2023-03-15T02:51:24.279Z,5.90
2023-03-15T02:54:01.285Z,1.17
2023-03-15T02:56:28.136Z,4.68
2023-03-15T02:58:54.937Z,3.35
2023-03-15T03:01:21.720Z,2.80
2023-03-15T03:03:48.580Z,14.85
2023-03-15T03:06:17.805Z,4.70
2023-03-15T03:08:47.777Z,4.70
2023-03-15T03:11:15.780Z,10.05
2023-03-15T03:13:43.231Z,11.18
2023-03-15T03:16:10.424Z,5.70
2023-03-15T03:18:37.545Z,2.43
2023-03-15T03:21:06.541Z,4.53
2023-03-15T03:23:35.240Z,4.35
2023-03-15T03:26:03.788Z,3.95
2023-03-15T03:28:33.190Z,2.40
2023-03-15T03:31:00.583Z,6.33
2023-03-15T03:33:27.398Z,5.93
2023-03-15T03:35:54.537Z,6.72
2023-03-15T03:38:21.425Z,1.13
2023-03-15T03:40:48.561Z,2.55
2023-03-15T03:43:15.302Z,2.80
2023-03-15T03:45:42.080Z,1.92
2023-03-15T03:48:09.264Z,4.25
2023-03-15T03:50:36.029Z,2.20
2023-03-15T03:53:02.802Z,4.03
2023-03-15T03:55:29.537Z,4.87
2023-03-15T03:57:56.314Z,3.92
2023-03-15T04:00:23.839Z,4.03
2023-03-15T04:02:54.155Z,3.80
2023-03-15T04:05:21.166Z,4.35
2023-03-15T04:07:47.942Z,7.10
2023-03-15T04:10:15.082Z,6.03
2023-03-15T04:12:43.793Z,4.90
2023-03-15T04:15:11.796Z,8.77
2023-03-15T04:17:39.438Z,2.92
2023-03-15T04:20:09.090Z,4.57
2023-03-15T04:22:35.979Z,3.63
2023-03-15T04:25:03.371Z,4.05
2023-03-15T04:27:30.673Z,10.02
2023-03-15T04:29:57.450Z,5.88
2023-03-15T04:32:24.245Z,4.50
2023-03-15T04:34:52.557Z,6.40
2023-03-15T04:37:19.434Z,5.55
2023-03-15T04:39:46.386Z,8.15
2023-03-15T04:42:13.155Z,6.40
2023-03-15T04:44:39.920Z,6.70
2023-03-15T04:47:06.923Z,6.72
2023-03-15T04:49:33.774Z,3.65
2023-03-15T04:52:01.113Z,4.20
2023-03-15T04:54:28.042Z,7.22
2023-03-15T04:56:54.871Z,2.30
2023-03-15T04:59:21.972Z,1.83
2023-03-15T05:01:49.098Z,3.65
2023-03-15T05:04:16.467Z,4.53
2023-03-15T05:06:43.292Z,2.90
2023-03-15T05:09:10.050Z,3.03
2023-03-15T05:11:36.826Z,4.78
2023-03-15T05:14:03.513Z,3.65
2023-03-15T05:16:30.332Z,5.57
2023-03-15T05:18:57.822Z,2.78
2023-03-15T05:21:24.525Z,6.40
2023-03-15T05:23:51.623Z,3.00
2023-03-15T05:26:18.355Z,3.55
2023-03-15T05:28:45.378Z,2.30
2023-03-15T05:31:12.425Z,5.38
2023-03-15T05:33:40.834Z,2.33
2023-03-15T05:36:07.694Z,2.47
2023-03-15T05:38:34.599Z,3.20
2023-03-15T05:41:02.124Z,3.05
2023-03-15T05:43:29.060Z,6.95
2023-03-15T05:45:55.975Z,4.43
2023-03-15T05:48:22.743Z,4.47
2023-03-15T05:50:49.440Z,3.83
2023-03-15T05:53:16.213Z,3.28
2023-03-15T05:55:42.885Z,4.53
2023-03-15T05:58:09.786Z,8.70
2023-03-15T06:00:36.558Z,3.45
2023-03-15T06:03:03.585Z,3.35
2023-03-15T06:05:30.300Z,5.13
2023-03-15T06:07:57.107Z,5.05
2023-03-15T06:10:23.857Z,2.70
2023-03-15T06:12:52.386Z,3.63
2023-03-15T06:15:19.937Z,2.97
2023-03-15T06:17:46.778Z,4.63
2023-03-15T06:20:21.067Z,8.23
2023-03-15T06:22:47.840Z,8.60
2023-03-15T06:25:14.635Z,7.53
2023-03-15T06:27:41.470Z,3.85
2023-03-15T06:30:08.858Z,5.45
2023-03-15T06:32:35.640Z,7.15
2023-03-15T06:35:02.538Z,7.03
2023-03-15T06:37:35.315Z,5.57
2023-03-15T06:40:09.810Z,4.20
2023-03-15T06:42:39.421Z,5.97
2023-03-15T06:45:08.457Z,7.07
2023-03-15T06:47:35.458Z,3.00
2023-03-15T06:50:02.649Z,4.43
2023-03-15T06:52:29.382Z,4.10
2023-03-15T06:54:56.077Z,5.53
2023-03-15T06:57:22.941Z,4.50
2023-03-15T06:59:49.933Z,3.80
2023-03-15T07:02:18.560Z,3.80
2023-03-15T07:04:45.916Z,3.72
2023-03-15T07:07:12.842Z,2.90
2023-03-15T07:09:40.183Z,6.13
2023-03-15T07:12:07.819Z,4.53
2023-03-15T07:14:34.852Z,6.30
2023-03-15T07:17:01.899Z,6.43
2023-03-15T07:19:28.643Z,3.10
2023-03-15T07:21:55.401Z,4.78
2023-03-15T07:24:22.166Z,3.70
2023-03-15T07:26:48.896Z,6.50
2023-03-15T07:29:15.667Z,4.57
2023-03-15T07:31:42.429Z,11.60
2023-03-15T07:34:11.366Z,3.83
2023-03-15T07:36:38.020Z,4.00
2023-03-15T07:39:04.934Z,5.43
2023-03-15T07:41:31.657Z,6.18
2023-03-15T07:43:58.686Z,5.72
2023-03-15T07:46:26.229Z,4.35
2023-03-15T07:48:53.036Z,3.20
2023-03-15T07:51:19.774Z,2.35
2023-03-15T07:53:46.518Z,3.53
2023-03-15T07:56:13.219Z,3.95
2023-03-15T07:58:39.922Z,4.00
2023-03-15T08:01:06.585Z,5.77
2023-03-15T08:03:33.392Z,1.75
2023-03-15T08:06:00.179Z,3.13
2023-03-15T08:08:27.317Z,3.88
2023-03-15T08:10:54.111Z,2.95
2023-03-15T08:13:21.948Z,5.13
2023-03-15T08:15:48.757Z,3.50
2023-03-15T08:18:15.543Z,2.92
2023-03-15T08:20:42.247Z,2.25
2023-03-15T08:23:09.346Z,4.05
2023-03-15T08:25:41.020Z,3.50
2023-03-15T08:28:08.092Z,1.85
2023-03-15T08:30:34.975Z,3.53
2023-03-15T08:33:01.815Z,4.53
2023-03-15T08:35:28.673Z,2.95
2023-03-15T08:37:55.536Z,2.73
2023-03-15T08:40:25.052Z,4.47
2023-03-15T08:42:55.488Z,4.93
2023-03-15T08:45:24.168Z,4.03
2023-03-15T08:47:57.902Z,5.97
2023-03-15T08:50:26.621Z,4.90
2023-03-15T08:52:53.563Z,4.22
2023-03-15T08:55:21.098Z,2.60
2023-03-15T08:57:47.948Z,2.55
2023-03-15T09:00:22.806Z,3.47
2023-03-15T09:02:52.014Z,4.10
2023-03-15T09:05:19.969Z,2.10
2023-03-15T09:07:47.662Z,5.00
2023-03-15T09:10:15.811Z,2.58
2023-03-15T09:12:52.157Z,5.45
2023-03-15T09:15:19.410Z,3.80
2023-03-15T09:17:46.191Z,3.33
2023-03-15T09:20:19.257Z,5.65
2023-03-15T09:22:54.802Z,4.03
2023-03-15T09:25:22.899Z,3.65
2023-03-15T09:27:50.091Z,7.20
2023-03-15T09:30:17.090Z,4.18
2023-03-15T09:32:44.528Z,5.53
2023-03-15T09:35:15.024Z,5.72
2023-03-15T09:37:42.651Z,2.78
2023-03-15T09:40:21.614Z,5.00
2023-03-15T09:43:03.624Z,6.68
2023-03-15T09:45:50.814Z,6.15
2023-03-15T09:48:44.690Z,3.85
2023-03-15T09:51:24.519Z,6.55
2023-03-15T09:54:29.606Z,6.57
2023-03-15T09:57:06.840Z,4.55
2023-03-15T09:59:38.021Z,4.28
2023-03-15T10:02:17.588Z,6.35
2023-03-15T10:04:47.413Z,7.28
2023-03-15T10:07:16.580Z,4.10
2023-03-15T10:09:43.885Z,6.20
2023-03-15T10:12:17.091Z,3.45
2023-03-15T10:15:26.457Z,6.10
2023-03-15T10:18:00.233Z,3.35
2023-03-15T10:20:35.622Z,7.20
2023-03-15T10:23:18.097Z,6.85
2023-03-15T10:25:46.709Z,6.43
2023-03-15T10:28:36.212Z,6.13
2023-03-15T10:31:22.469Z,6.07
2023-03-15T10:33:54.094Z,4.90
2023-03-15T10:36:23.671Z,5.53
2023-03-15T10:38:50.983Z,6.13
2023-03-15T10:41:36.436Z,6.07
2023-03-15T10:44:07.171Z,6.50
2023-03-15T10:46:35.457Z,3.80
2023-03-15T10:49:08.350Z,2.78
2023-03-15T10:51:45.991Z,10.73
2023-03-15T10:54:22.109Z,5.90
2023-03-15T10:57:12.263Z,4.03
2023-03-15T11:00:17.402Z,2.00
2023-03-15T11:02:52.891Z,3.85
2023-03-15T11:05:20.239Z,4.35
2023-03-15T11:07:56.576Z,5.60
2023-03-15T11:10:25.324Z,3.42
2023-03-15T11:13:23.180Z,5.20
2023-03-15T11:15:58.506Z,4.22
2023-03-15T11:18:35.625Z,6.53
2023-03-15T11:21:07.099Z,2.60
2023-03-15T11:23:39.564Z,8.45
2023-03-15T11:26:09.646Z,3.57
2023-03-15T11:28:47.894Z,3.65
2023-03-15T11:31:14.939Z,5.93
2023-03-15T11:33:59.640Z,4.53
2023-03-15T11:36:31.840Z,4.25
2023-03-15T11:39:02.950Z,4.43
2023-03-15T11:41:49.997Z,2.92
2023-03-15T11:44:40.641Z,4.05
2023-03-15T11:47:29.955Z,4.40
2023-03-15T11:49:58.753Z,4.18
2023-03-15T11:52:28.337Z,4.53
2023-03-15T11:55:01.313Z,5.05
2023-03-15T11:57:46.390Z,4.32
2023-03-15T12:00:21.817Z,2.55
2023-03-15T12:02:53.099Z,3.45
2023-03-15T12:05:50.861Z,3.40
2023-03-15T12:08:18.533Z,3.90
2023-03-15T12:10:47.700Z,1.83
2023-03-15T12:13:26.239Z,3.90
2023-03-15T12:15:59.450Z,5.18
2023-03-15T12:18:45.811Z,2.80
2023-03-15T12:21:18.381Z,3.28
2023-03-15T12:24:06.667Z,4.53
2023-03-15T12:26:43.722Z,3.78
2023-03-15T12:29:30.485Z,2.65
2023-03-15T12:32:02.115Z,1.90
2023-03-15T12:34:52.835Z,4.75
2023-03-15T12:37:28.102Z,3.13
2023-03-15T12:40:02.312Z,3.60
2023-03-15T12:42:32.072Z,1.85
2023-03-15T12:45:17.187Z,3.03
2023-03-15T12:48:12.779Z,2.95
2023-03-15T12:50:39.483Z,2.45
2023-03-15T12:53:23.238Z,2.35
2023-03-15T12:55:54.133Z,3.35
2023-03-15T12:58:36.113Z,4.70
2023-03-15T13:01:06.261Z,3.30
2023-03-15T13:03:36.165Z,4.43
2023-03-15T13:06:06.054Z,2.25
2023-03-15T13:08:58.751Z,4.40
2023-03-15T13:11:35.054Z,2.97
2023-03-15T13:14:23.274Z,3.60
2023-03-15T13:17:08.918Z,4.55
2023-03-15T13:19:43.307Z,2.50
2023-03-15T13:22:23.674Z,2.97
2023-03-15T13:25:15.739Z,1.73
2023-03-15T13:27:48.427Z,3.25
2023-03-15T13:30:32.465Z,2.15
2023-03-15T13:33:10.313Z,2.88
2023-03-15T13:35:45.983Z,2.50
2023-03-15T13:38:40.004Z,2.03
2023-03-15T13:41:23.681Z,6.50
2023-03-15T13:43:52.426Z,1.58
2023-03-15T13:46:25.218Z,2.70
2023-03-15T13:48:54.266Z,3.15
2023-03-15T13:51:25.298Z,2.93
2023-03-15T13:54:20.204Z,3.83
2023-03-15T13:57:06.460Z,2.60
2023-03-15T13:59:40.835Z,1.70
2023-03-15T14:02:12.942Z,1.30
2023-03-15T14:04:39.741Z,3.30
2023-03-15T14:07:24.942Z,2.35
2023-03-15T14:10:31.893Z,2.58
2023-03-15T14:13:15.130Z,4.07
2023-03-15T14:15:44.310Z,3.97
2023-03-15T14:18:11.008Z,3.47
2023-03-15T14:20:42.370Z,4.60
2023-03-15T14:23:14.183Z,3.53
2023-03-15T14:25:41.290Z,2.80
2023-03-15T14:28:15.003Z,2.45
2023-03-15T14:30:42.188Z,1.70
2023-03-15T14:33:32.575Z,3.88
2023-03-15T14:36:03.057Z,3.85
2023-03-15T14:38:38.411Z,4.25
2023-03-15T14:41:19.379Z,3.67
2023-03-15T14:43:46.459Z,4.50
2023-03-15T14:46:13.317Z,2.38
2023-03-15T14:48:40.458Z,3.25
2023-03-15T14:51:13.795Z,3.58
2023-03-15T14:53:40.626Z,2.05
2023-03-15T14:56:09.838Z,4.07
2023-03-15T14:58:36.538Z,5.20
2023-03-15T15:01:03.876Z,2.03
2023-03-15T15:03:38.674Z,2.35
2023-03-15T15:06:08.817Z,2.50
2023-03-15T15:08:38.545Z,2.53
2023-03-15T15:11:05.752Z,2.45
2023-03-15T15:13:32.687Z,3.20
2023-03-15T15:16:00.229Z,3.05
2023-03-15T15:18:32.258Z,1.85
2023-03-15T15:21:02.838Z,1.90
2023-03-15T15:23:32.582Z,2.88
2023-03-15T15:26:07.117Z,1.98
2023-03-15T15:28:37.000Z,2.13
2023-03-15T15:31:07.501Z,3.00
2023-03-15T15:33:35.919Z,2.27
2023-03-15T15:36:03.336Z,2.50
2023-03-15T15:38:34.812Z,3.30
2023-03-15T15:41:01.739Z,2.72
2023-03-15T15:43:28.840Z,2.55
2023-03-15T15:45:55.652Z,3.10
2023-03-15T15:48:22.709Z,3.92
2023-03-15T15:50:49.560Z,2.45
2023-03-15T15:53:18.057Z,3.97
2023-03-15T15:55:45.809Z,2.72
2023-03-15T15:58:13.831Z,2.73
2023-03-15T16:00:40.600Z,2.33
2023-03-15T16:03:16.249Z,2.97
2023-03-15T16:05:46.017Z,2.20
2023-03-15T16:08:24.115Z,2.25
2023-03-15T16:10:51.476Z,5.43
2023-03-15T16:13:18.349Z,5.38
2023-03-15T16:15:45.101Z,3.58
2023-03-15T16:18:12.842Z,2.67
2023-03-15T16:20:41.036Z,2.83
2023-03-15T16:23:13.847Z,3.37
2023-03-15T16:25:41.731Z,2.80
2023-03-15T16:28:11.486Z,2.45
2023-03-15T16:30:38.552Z,5.18
2023-03-15T16:33:14.492Z,4.80
2023-03-15T16:35:41.735Z,3.03
2023-03-15T16:38:24.190Z,2.45
2023-03-15T16:40:53.388Z,2.40
2023-03-15T16:43:20.730Z,2.10
2023-03-15T16:45:47.794Z,3.80
2023-03-15T16:48:14.721Z,5.40
2023-03-15T16:50:44.282Z,2.17
2023-03-15T16:53:13.146Z,2.35
2023-03-15T16:55:40.178Z,2.97
2023-03-15T16:58:25.528Z,2.20
2023-03-15T17:00:53.507Z,3.73
2023-03-15T17:03:21.360Z,1.88
2023-03-15T17:05:48.538Z,3.13
2023-03-15T17:08:21.089Z,1.65
2023-03-15T17:10:48.419Z,4.05
2023-03-15T17:13:17.342Z,3.47
2023-03-15T17:15:44.169Z,3.17
2023-03-15T17:18:18.946Z,4.90
2023-03-15T17:20:50.528Z,2.83
2023-03-15T17:23:18.539Z,2.67
2023-03-15T17:25:45.307Z,3.80
2023-03-15T17:28:12.346Z,4.03
2023-03-15T17:30:39.202Z,4.45
2023-03-15T17:33:06.801Z,4.15
2023-03-15T17:35:54.674Z,4.15
2023-03-15T17:38:22.252Z,5.80
2023-03-15T17:40:49.421Z,5.45
2023-03-15T17:43:18.275Z,4.18
2023-03-15T17:45:45.423Z,4.85
2023-03-15T17:48:12.247Z,6.22
2023-03-15T17:50:42.313Z,5.90
2023-03-15T17:53:17.640Z,5.00
2023-03-15T17:55:47.977Z,5.35
2023-03-15T17:58:23.032Z,3.90
2023-03-15T18:00:51.510Z,5.45
2023-03-15T18:03:18.984Z,4.83
2023-03-15T18:05:46.281Z,4.55
2023-03-15T18:08:19.398Z,5.45
2023-03-15T18:10:47.230Z,4.28
2023-03-15T18:13:17.959Z,4.22
2023-03-15T18:15:46.094Z,5.93
2023-03-15T18:18:13.095Z,6.93
2023-03-15T18:20:41.314Z,6.90
2023-03-15T18:23:11.793Z,8.63
2023-03-15T18:25:38.578Z,5.40
2023-03-15T18:28:05.587Z,6.87
2023-03-15T18:30:33.749Z,5.45
2023-03-15T18:33:01.820Z,6.60
2023-03-15T18:35:38.136Z,7.50
2023-03-15T18:38:06.129Z,7.85
2023-03-15T18:40:33.885Z,6.03
2023-03-15T18:43:01.665Z,7.78
2023-03-15T18:45:31.021Z,6.82
2023-03-15T18:47:59.825Z,10.73
2023-03-15T18:50:27.487Z,7.20
2023-03-15T18:52:54.715Z,7.93
2023-03-15T18:55:24.249Z,8.43
2023-03-15T18:57:53.315Z,11.82
2023-03-15T19:00:29.321Z,9.55
2023-03-15T19:03:01.045Z,10.10
2023-03-15T19:05:29.642Z,9.30
2023-03-15T19:07:56.382Z,9.38
2023-03-15T19:10:24.886Z,9.15
2023-03-15T19:12:53.177Z,9.68
2023-03-15T19:15:22.157Z,8.65
2023-03-15T19:17:51.137Z,6.70
2023-03-15T19:20:23.155Z,10.50
2023-03-15T19:22:51.466Z,8.38
2023-03-15T19:25:18.482Z,8.48
2023-03-15T19:27:45.382Z,7.85
2023-03-15T19:30:17.870Z,7.00
2023-03-15T19:32:46.975Z,10.32
2023-03-15T19:35:14.230Z,7.65
2023-03-15T19:37:42.515Z,9.10
2023-03-15T19:40:12.013Z,10.55
2023-03-15T19:42:38.831Z,9.00
2023-03-15T19:45:06.377Z,7.60
2023-03-15T19:47:33.120Z,7.55
2023-03-15T19:49:59.844Z,7.55
2023-03-15T19:52:27.927Z,8.90
2023-03-15T19:54:55.367Z,8.17
2023-03-15T19:57:22.086Z,7.53
2023-03-15T19:59:49.691Z,10.40
2023-03-15T20:02:20.463Z,9.07
2023-03-15T20:04:47.193Z,8.90
2023-03-15T20:07:14.069Z,6.80
2023-03-15T20:09:41.430Z,7.45
2023-03-15T20:12:10.978Z,7.18
2023-03-15T20:14:38.615Z,8.93
2023-03-15T20:17:05.773Z,7.05
2023-03-15T20:19:32.776Z,8.47
2023-03-15T20:21:59.542Z,8.05
2023-03-15T20:24:26.312Z,10.80
2023-03-15T20:26:53.615Z,8.43
2023-03-15T20:29:22.343Z,10.05
2023-03-15T20:31:49.651Z,10.37
2023-03-15T20:34:17.333Z,9.75
2023-03-15T20:36:44.452Z,10.25
2023-03-15T20:39:11.188Z,9.30
2023-03-15T20:41:39.263Z,9.02
2023-03-15T20:44:06.020Z,18.87
2023-03-15T20:46:33.263Z,9.63
2023-03-15T20:49:00.002Z,9.32
2023-03-15T20:51:26.815Z,11.45
2023-03-15T20:53:53.570Z,14.32
2023-03-15T20:56:21.855Z,9.97
2023-03-15T20:58:48.770Z,8.82
2023-03-15T21:01:16.928Z,10.07
2023-03-15T21:03:45.147Z,9.65
2023-03-15T21:06:13.686Z,10.68
2023-03-15T21:08:41.827Z,11.33
2023-03-15T21:11:08.909Z,8.68
2023-03-15T21:13:35.997Z,11.23
2023-03-15T21:16:04.941Z,10.07
2023-03-15T21:18:33.306Z,10.95
2023-03-15T21:21:06.125Z,9.17
2023-03-15T21:23:33.702Z,8.18
2023-03-15T21:26:03.456Z,9.02
2023-03-15T21:28:30.843Z,9.57
2023-03-15T21:30:58.466Z,9.85
2023-03-15T21:33:28.220Z,11.90
2023-03-15T21:35:56.302Z,9.55
2023-03-15T21:38:26.346Z,9.35
2023-03-15T21:40:58.392Z,8.30
2023-03-15T21:43:29.940Z,11.32
2023-03-15T21:46:02.148Z,8.87
2023-03-15T21:48:29.607Z,10.20
2023-03-15T21:50:57.155Z,10.48
2023-03-15T21:53:24.174Z,10.85
2023-03-15T21:55:53.648Z,9.65
2023-03-15T21:58:20.445Z,11.17
2023-03-15T22:00:47.229Z,9.98
2023-03-15T22:03:16.793Z,10.07
2023-03-15T22:05:45.838Z,10.48
2023-03-15T22:08:12.600Z,12.45
2023-03-15T22:10:39.328Z,10.47
2023-03-15T22:13:06.062Z,9.40
2023-03-15T22:15:33.952Z,10.65
2023-03-15T22:18:02.234Z,9.88
2023-03-15T22:20:30.766Z,11.98
2023-03-15T22:22:57.650Z,12.97
2023-03-15T22:25:24.555Z,9.77
2023-03-15T22:27:51.416Z,8.35
2023-03-15T22:30:18.885Z,11.48
2023-03-15T22:32:45.807Z,9.93
2023-03-15T22:35:15.913Z,9.23
2023-03-15T22:37:43.517Z,9.90
2023-03-15T22:40:14.249Z,9.45
2023-03-15T22:42:42.155Z,8.15
2023-03-15T22:45:09.705Z,8.75
2023-03-15T22:47:36.475Z,10.67
2023-03-15T22:50:03.605Z,8.57
2023-03-15T22:52:30.377Z,8.07
2023-03-15T22:54:57.210Z,9.63
2023-03-15T22:57:24.059Z,9.48
2023-03-15T22:59:50.794Z,10.17
2023-03-15T23:02:17.544Z,11.45
2023-03-15T23:04:45.300Z,7.72
2023-03-15T23:07:12.700Z,11.73
2023-03-15T23:09:39.455Z,8.68
2023-03-15T23:12:06.458Z,8.03
2023-03-15T23:14:33.748Z,12.02
2023-03-15T23:17:04.258Z,8.48
2023-03-15T23:19:36.168Z,9.75
2023-03-15T23:22:04.566Z,9.68
2023-03-15T23:24:34.080Z,9.03
2023-03-15T23:27:03.504Z,9.20
2023-03-15T23:29:47.047Z,8.77
2023-03-15T23:32:20.473Z,8.55
2023-03-15T23:34:48.063Z,9.07
2023-03-15T23:37:17.720Z,8.40
2023-03-15T23:39:44.610Z,9.75
2023-03-15T23:42:12.128Z,9.15
2023-03-15T23:44:38.885Z,8.52
2023-03-15T23:47:06.484Z,9.85
2023-03-15T23:49:33.572Z,10.43
2023-03-15T23:52:05.695Z,9.80
2023-03-15T23:54:39.330Z,9.98
2023-03-15T23:57:07.835Z,9.07
2023-03-15T23:59:39.110Z,9.30
